Time;durP1;ratioP1;P1;durP2;ratioP2;P2;SDS_P1;SDS_P2;PMS_P1;PMS_P2;Temp;Humidity;BMP_temperature;BMP_pressure;BME280_temperature;BME280_humidity;BME280_pressure;Samples;Min_cycle;Max_cycle;Signal;HPM_P1;HPM_P2
2023/12/05 00:01:00;;;;;;;186.03;9.30;;;;;;;24.70;43.70;98713.09;7286149;19;130745;-38
2023/12/05 00:03:25;;;;;;;178.50;9.47;;;;;;;24.62;44.06;98711.34;7285611;19;130273;-39
2023/12/05 00:05:51;;;;;;;217.50;11.10;;;;;;;24.48;44.13;98712.13;7285910;19;131324;-40
2023/12/05 00:08:17;;;;;;;224.10;10.70;;;;;;;24.44;44.53;98709.03;7287103;19;131499;-39
2023/12/05 00:10:43;;;;;;;189.95;9.18;;;;;;;24.20;44.14;98687.44;7283232;19;130948;-39
2023/12/05 00:13:08;;;;;;;171.20;8.77;;;;;;;24.23;44.67;98724.69;7285463;19;132347;-39
2023/12/05 00:15:33;;;;;;;245.70;12.57;;;;;;;24.10;45.21;98721.84;7288400;19;129689;-40
2023/12/05 00:17:59;;;;;;;230.47;11.43;;;;;;;24.02;45.09;98724.53;7287457;19;129926;-39
2023/12/05 00:20:24;;;;;;;208.13;10.17;;;;;;;23.76;44.91;98687.28;7277380;19;131113;-41
2023/12/05 00:22:50;;;;;;;167.60;8.63;;;;;;;23.81;45.24;98716.47;7283953;19;130457;-39
2023/12/05 00:25:15;;;;;;;211.50;10.30;;;;;;;23.60;45.89;98695.25;7284688;19;129505;-38
2023/12/05 00:27:41;;;;;;;232.60;12.07;;;;;;;23.64;45.38;98704.44;7283033;19;130114;-37
2023/12/05 00:30:07;;;;;;;176.10;9.00;;;;;;;23.55;45.67;98697.59;7286400;19;131790;-41
2023/12/05 00:32:32;;;;;;;217.33;11.33;;;;;;;23.51;46.04;98696.31;7288221;19;132619;-40
2023/12/05 00:34:57;;;;;;;290.70;13.95;;;;;;;23.46;46.21;98700.44;7285369;19;129322;-38
2023/12/05 00:37:23;;;;;;;134.27;7.37;;;;;;;23.43;46.57;98706.88;7285995;19;131735;-39
2023/12/05 00:39:48;;;;;;;167.10;8.73;;;;;;;23.39;46.69;98699.53;7285860;19;130292;-39
2023/12/05 00:42:13;;;;;;;210.13;10.02;;;;;;;23.39;46.64;98700.31;7288186;19;130244;-40
2023/12/05 00:44:39;;;;;;;254.40;12.30;;;;;;;23.45;46.67;98704.91;7291765;19;129826;-41
2023/12/05 00:47:05;;;;;;;156.97;8.00;;;;;;;23.54;46.47;98690.72;7295252;19;130783;-39
2023/12/05 00:49:32;;;;;;;;;;;;;;;23.60;45.80;98690.00;7292222;19;130455;-41
2023/12/05 00:51:58;;;;;;;188.10;9.07;;;;;;;23.74;46.04;98693.69;7293167;19;131174;-38
2023/12/05 00:54:24;;;;;;;186.43;9.30;;;;;;;23.87;45.24;98684.25;7294403;19;130777;-40
2023/12/05 00:56:49;;;;;;;191.30;9.80;;;;;;;24.00;45.07;98697.63;7294595;19;130318;-41
2023/12/05 00:59:15;;;;;;;199.43;10.13;;;;;;;24.10;45.24;98695.56;7291623;19;130079;-41
2023/12/05 01:01:41;;;;;;;160.07;8.50;;;;;;;24.19;45.21;98686.63;7292567;19;130504;-37
2023/12/05 01:04:06;;;;;;;194.90;9.77;;;;;;;24.35;44.28;98686.47;7290254;19;130397;-37
2023/12/05 01:06:31;;;;;;;188.65;9.43;;;;;;;24.47;43.99;98702.63;7287433;19;131172;-37
2023/12/05 01:08:57;;;;;;;203.97;9.83;;;;;;;24.34;43.61;98660.38;7291199;19;129863;-41
2023/12/05 01:11:22;;;;;;;214.43;10.13;;;;;;;24.60;44.01;98680.97;7293383;19;130794;-39
2023/12/05 01:13:48;;;;;;;190.73;9.37;;;;;;;24.74;43.15;98677.56;7291946;19;131940;-38
2023/12/05 01:16:14;;;;;;;125.97;7.03;;;;;;;24.74;43.45;98683.66;7293233;19;129470;-37
2023/12/05 01:18:40;;;;;;;178.82;8.95;;;;;;;24.79;43.38;98669.94;7292643;19;130063;-40
2023/12/05 01:21:05;;;;;;;211.32;10.05;;;;;;;24.71;43.60;98673.47;7293403;19;131659;-41
2023/12/05 01:23:30;;;;;;;181.93;9.00;;;;;;;24.60;43.73;98670.44;7292953;19;129577;-37
2023/12/05 01:25:56;;;;;;;129.60;6.90;;;;;;;24.54;44.24;98671.19;7290181;19;129578;-37
2023/12/05 01:28:21;;;;;;;86.67;5.17;;;;;;;24.44;44.10;98667.00;7292573;19;130295;-36
2023/12/05 01:30:46;;;;;;;230.67;11.27;;;;;;;24.38;44.19;98662.47;7289827;19;130760;-39
2023/12/05 01:33:12;;;;;;;210.13;10.27;;;;;;;24.22;45.03;98662.63;7292586;19;129651;-38
2023/12/05 01:35:37;;;;;;;199.10;10.07;;;;;;;24.16;44.45;98657.28;7291739;19;129761;-41
2023/12/05 01:38:03;;;;;;;156.73;7.90;;;;;;;24.03;45.00;98659.72;7292923;19;130817;-39
2023/12/05 01:40:28;;;;;;;216.83;10.37;;;;;;;23.97;45.23;98663.81;7289937;19;131462;-39
2023/12/05 01:42:54;;;;;;;139.07;7.63;;;;;;;23.84;45.61;98658.34;7293869;19;131612;-38
2023/12/05 01:45:19;;;;;;;197.07;9.40;;;;;;;23.75;45.93;98656.78;7289632;19;130524;-40
2023/12/05 01:47:45;;;;;;;209.17;10.50;;;;;;;23.69;45.96;98654.88;7291749;19;129727;-38
2023/12/05 01:50:18;;;;;;;175.45;8.73;;;;;;;23.62;45.71;98664.41;7289698;19;132776;-37
2023/12/05 01:52:47;;;;;;;225.82;11.02;;;;;;;23.41;46.18;98630.16;7288309;19;129732;-38
2023/12/05 01:55:15;;;;;;;117.65;6.38;;;;;;;23.47;46.21;98658.28;7287612;19;130471;-38
2023/12/05 01:57:41;;;;;;;254.45;12.57;;;;;;;23.38;45.91;98655.91;7290926;19;131153;-39
2023/12/05 02:00:07;;;;;;;214.32;10.50;;;;;;;23.30;46.34;98659.41;7291116;19;130897;-40
2023/12/05 02:02:35;;;;;;;226.10;11.02;;;;;;;23.33;47.35;98653.81;7288701;19;131581;-40
2023/12/05 02:05:03;;;;;;;175.68;8.80;;;;;;;23.38;46.90;98656.72;7291163;19;130468;-39
2023/12/05 02:07:30;;;;;;;165.25;8.48;;;;;;;23.44;46.65;98647.31;7288924;19;129387;-38
2023/12/05 02:09:55;;;;;;;188.85;9.55;;;;;;;23.52;46.14;98653.34;7290371;19;130399;-39
2023/12/05 02:12:21;;;;;;;201.63;9.97;;;;;;;23.46;46.07;98616.50;7292355;19;133312;-39
2023/12/05 02:14:46;;;;;;;203.38;10.43;;;;;;;23.78;45.49;98639.88;7292990;19;130196;-39
2023/12/05 02:17:17;;;;;;;206.53;9.83;;;;;;;23.87;46.04;98654.53;7289273;19;130914;-36
2023/12/05 02:19:42;;;;;;;305.05;14.82;;;;;;;23.98;45.67;98631.34;7288613;19;130584;-35
2023/12/05 02:22:23;;;;;;;203.40;9.80;;;;;;;24.11;45.46;98633.38;7291854;19;129136;-38
2023/12/05 02:25:20;;;;;;;223.90;11.23;;;;;;;24.22;44.54;98615.38;7290462;19;131166;-40
2023/12/05 02:27:46;;;;;;;278.13;13.77;;;;;;;24.14;43.92;98589.19;7290928;19;131000;-38
2023/12/05 02:30:14;;;;;;;165.43;8.07;;;;;;;24.42;43.86;98607.75;7287252;19;130695;-40
2023/12/05 02:32:40;;;;;;;147.07;7.57;;;;;;;24.53;43.82;98612.53;7291186;19;129770;-41
2023/12/05 02:35:06;;;;;;;238.53;11.57;;;;;;;24.58;44.28;98612.03;7289021;19;129232;-40
2023/12/05 02:37:43;;;;;;;243.07;11.60;;;;;;;24.65;43.97;98615.53;7291436;19;130281;-38
2023/12/05 02:40:36;;;;;;;195.55;9.15;;;;;;;24.60;44.05;98596.84;7284010;19;131437;-38
2023/12/05 02:43:08;;;;;;;203.57;9.82;;;;;;;24.40;43.78;98576.41;7291967;19;130944;-39
2023/12/05 02:45:39;;;;;;;198.02;9.65;;;;;;;24.51;44.02;98603.22;7288701;19;133000;-39
2023/12/05 02:48:07;;;;;;;173.93;8.50;;;;;;;24.45;43.71;98595.06;7288958;19;130371;-39
2023/12/05 02:50:33;;;;;;;242.43;11.45;;;;;;;24.26;44.26;98595.59;7287717;19;130398;-38
2023/12/05 02:52:58;;;;;;;224.43;10.67;;;;;;;24.23;44.31;98606.47;7287692;19;129200;-40
2023/12/05 02:55:23;;;;;;;164.53;8.47;;;;;;;24.11;44.48;98593.97;7291722;19;131457;-39
2023/12/05 02:57:49;;;;;;;188.03;9.37;;;;;;;24.00;45.20;98605.72;7290021;19;131124;-37
2023/12/05 03:00:14;;;;;;;197.65;9.38;;;;;;;23.91;44.92;98600.72;7288745;19;132333;-40
2023/12/05 03:02:40;;;;;;;207.83;10.17;;;;;;;23.84;45.84;98599.78;7288042;19;129782;-36
2023/12/05 03:05:07;;;;;;;224.88;11.25;;;;;;;23.75;45.68;98598.25;7286146;19;130524;-39
2023/12/05 03:07:32;;;;;;;197.82;9.70;;;;;;;23.69;46.28;98605.00;7285263;19;129720;-41
2023/12/05 03:09:57;;;;;;;235.80;11.53;;;;;;;23.58;46.25;98599.34;7282300;19;131060;-40
2023/12/05 03:12:23;;;;;;;177.27;8.60;;;;;;;23.48;46.59;98612.72;7288461;19;130492;-39
2023/12/05 03:14:48;;;;;;;186.90;9.53;;;;;;;23.36;46.67;98605.41;7286731;19;133713;-37
2023/12/05 03:17:13;;;;;;;252.03;12.03;;;;;;;23.34;47.07;98605.59;7286327;19;130669;-40
2023/12/05 03:19:39;;;;;;;236.57;11.07;;;;;;;23.12;47.10;98577.53;7280823;19;131115;-40
2023/12/05 03:22:04;;;;;;;264.07;13.10;;;;;;;23.33;47.18;98593.47;7286769;19;130041;-36
2023/12/05 03:24:29;;;;;;;138.17;7.27;;;;;;;23.37;47.27;98599.19;7285635;19;130121;-36
2023/12/05 03:26:55;;;;;;;299.17;14.77;;;;;;;23.41;46.82;98590.78;7285241;19;129571;-39
2023/12/05 03:29:20;;;;;;;214.40;10.10;;;;;;;23.49;46.59;98588.09;7283798;19;130590;-40
2023/12/05 03:31:45;;;;;;;205.30;10.23;;;;;;;23.58;46.23;98589.69;7289282;19;129676;-41
2023/12/05 03:34:11;;;;;;;216.97;10.57;;;;;;;23.57;46.29;98571.50;7286956;19;132026;-41
2023/12/05 03:36:36;;;;;;;241.83;11.47;;;;;;;23.77;46.04;98602.31;7286068;19;130436;-35
2023/12/05 03:39:02;;;;;;;194.05;9.52;;;;;;;23.90;45.79;98589.38;7282845;19;130247;-35
2023/12/05 03:41:27;;;;;;;175.73;8.75;;;;;;;24.06;44.87;98597.16;7288829;19;131551;-41
2023/12/05 03:43:52;;;;;;;205.07;10.25;;;;;;;24.11;45.04;98586.91;7289325;19;132139;-41
2023/12/05 03:46:18;;;;;;;220.50;10.50;;;;;;;24.20;45.10;98575.31;7288356;19;130827;-39
2023/12/05 03:48:43;;;;;;;157.07;7.85;;;;;;;24.30;44.67;98575.88;7288974;19;130695;-36
2023/12/05 03:51:08;;;;;;;186.37;9.03;;;;;;;24.29;44.56;98555.03;7286630;19;129843;-38
2023/12/05 03:53:34;;;;;;;173.03;8.57;;;;;;;24.47;44.37;98589.63;7288680;19;130287;-36
2023/12/05 03:55:59;;;;;;;204.47;10.03;;;;;;;24.51;44.11;98588.25;7282524;19;130374;-39
2023/12/05 03:58:25;;;;;;;268.08;12.68;;;;;;;24.48;44.28;98581.56;7283363;19;130353;-37
2023/12/05 04:00:51;;;;;;;229.30;11.03;;;;;;;24.51;44.33;98587.47;7282514;19;129575;-38
2023/12/05 04:03:16;;;;;;;278.17;13.32;;;;;;;24.45;43.92;98600.31;7282438;19;130176;-38
2023/12/05 04:05:41;;;;;;;277.97;13.00;;;;;;;24.30;44.40;98596.88;7280610;19;130185;-37
2023/12/05 04:08:07;;;;;;;169.77;8.33;;;;;;;24.25;44.15;98599.25;7287198;19;131896;-39
2023/12/05 04:10:32;;;;;;;288.10;13.50;;;;;;;24.14;44.31;98602.31;7281127;19;130156;-39
2023/12/05 04:12:58;;;;;;;148.97;8.00;;;;;;;24.02;45.31;98611.63;7285924;19;129315;-38
2023/12/05 04:15:24;;;;;;;284.93;13.63;;;;;;;23.95;44.93;98597.53;7281907;19;131771;-40
2023/12/05 04:17:49;;;;;;;206.40;10.17;;;;;;;23.88;45.26;98601.84;7290188;19;130663;-37
2023/12/05 04:20:15;;;;;;;235.17;11.77;;;;;;;23.77;46.06;98594.44;7293120;19;131259;-39
2023/12/05 04:22:41;;;;;;;190.23;9.20;;;;;;;23.64;45.57;98588.97;7287172;19;130848;-39
2023/12/05 04:25:07;;;;;;;242.07;12.03;;;;;;;23.58;46.48;98591.47;7286022;19;130784;-40
2023/12/05 04:27:32;;;;;;;216.20;10.67;;;;;;;23.33;46.56;98569.88;7291999;19;131572;-39
2023/12/05 04:29:58;;;;;;;189.63;9.20;;;;;;;23.39;47.10;98599.84;7295605;19;131036;-40
2023/12/05 04:32:23;;;;;;;200.30;9.47;;;;;;;23.28;46.84;98601.06;7293854;19;130455;-38
2023/12/05 04:34:48;;;;;;;204.40;9.90;;;;;;;23.21;46.72;98610.56;7289480;19;130674;-37
2023/12/05 04:37:14;;;;;;;148.43;7.40;;;;;;;23.11;47.51;98575.88;7289597;19;131527;-39
2023/12/05 04:39:40;;;;;;;192.37;9.00;;;;;;;23.31;47.17;98608.56;7287644;19;130652;-39
2023/12/05 04:42:06;;;;;;;200.25;10.50;;;;;;;23.59;45.80;98609.66;7289954;19;131958;-40
2023/12/05 04:44:31;;;;;;;220.93;10.57;;;;;;;24.04;45.26;98601.75;7288485;19;130149;-38
2023/12/05 04:46:57;;;;;;;261.27;12.10;;;;;;;24.60;43.84;98604.75;7289357;19;130486;-40
2023/12/05 04:49:23;;;;;;;192.10;9.60;;;;;;;25.07;43.40;98610.41;7286550;19;132705;-40
2023/12/05 04:51:48;;;;;;;178.50;8.73;;;;;;;25.52;42.04;98602.19;7286657;19;129587;-39
2023/12/05 04:54:13;;;;;;;249.87;11.67;;;;;;;25.72;40.85;98579.47;7291172;19;130088;-38
2023/12/05 04:56:39;;;;;;;246.90;11.80;;;;;;;26.13;40.55;98604.13;7291006;19;131415;-40
2023/12/05 04:59:04;;;;;;;243.68;11.75;;;;;;;26.32;40.18;98605.25;7289666;19;130154;-40
2023/12/05 05:01:29;;;;;;;227.20;10.60;;;;;;;26.49;39.79;98607.41;7284068;19;130122;-39
2023/12/05 05:03:55;;;;;;;161.83;8.67;;;;;;;26.60;39.44;98601.56;7293808;19;131778;-38
2023/12/05 05:06:21;;;;;;;194.77;9.30;;;;;;;26.65;39.01;98601.81;7290595;19;131285;-39
2023/12/05 05:08:46;;;;;;;175.53;8.43;;;;;;;26.74;39.34;98598.00;7293132;19;129391;-37
2023/12/05 05:11:12;;;;;;;275.30;12.87;;;;;;;26.78;39.32;98604.53;7285803;19;131407;-40
2023/12/05 05:13:37;;;;;;;210.47;9.93;;;;;;;26.89;38.40;98593.38;7287058;19;131544;-39
2023/12/05 05:16:03;;;;;;;169.10;8.77;;;;;;;26.89;38.52;98580.19;7292246;19;130957;-40
2023/12/05 05:18:28;;;;;;;219.47;10.93;;;;;;;26.94;38.40;98583.06;7287940;19;129993;-38
2023/12/05 05:20:54;;;;;;;205.00;9.90;;;;;;;27.05;38.64;98578.22;7282815;19;130183;-39
2023/12/05 05:23:19;;;;;;;237.57;11.47;;;;;;;26.90;39.08;98592.41;7285126;19;131150;-39
2023/12/05 05:25:44;;;;;;;228.80;10.93;;;;;;;27.04;38.71;98584.53;7283971;19;131814;-38
2023/12/05 05:28:10;;;;;;;166.77;8.60;;;;;;;26.99;38.96;98579.03;7282954;19;131485;-38
2023/12/05 05:30:35;;;;;;;247.07;11.43;;;;;;;27.08;38.63;98583.09;7279750;19;129904;-35
2023/12/05 05:33:00;;;;;;;245.40;12.53;;;;;;;27.15;38.66;98594.47;7287289;19;130072;-38
2023/12/05 05:35:26;;;;;;;321.27;14.80;;;;;;;27.09;38.52;98590.00;7281781;19;130567;-40
2023/12/05 05:37:51;;;;;;;251.93;11.80;;;;;;;27.06;38.69;98582.47;7282679;19;130154;-38
2023/12/05 05:40:16;;;;;;;257.10;12.03;;;;;;;27.06;38.42;98595.66;7282517;19;130779;-38
2023/12/05 05:42:42;;;;;;;178.10;8.80;;;;;;;26.98;38.32;98583.47;7284430;19;131591;-37
2023/12/05 05:45:08;;;;;;;227.10;11.17;;;;;;;26.90;38.85;98596.84;7278910;19;130951;-39
2023/12/05 05:47:33;;;;;;;192.30;9.30;;;;;;;26.88;38.70;98581.22;7289317;19;129349;-37
2023/12/05 05:49:59;;;;;;;247.77;12.00;;;;;;;26.83;39.49;98586.28;7277971;19;129501;-40
2023/12/05 05:52:24;;;;;;;130.20;6.80;;;;;;;26.61;39.25;98568.91;7286083;19;131089;-38
2023/12/05 05:54:50;;;;;;;273.40;13.03;;;;;;;26.64;39.26;98576.41;7287091;19;131243;-37
2023/12/05 05:57:16;;;;;;;227.68;10.63;;;;;;;26.67;39.51;98586.63;7289339;19;129837;-40
2023/12/05 05:59:45;;;;;;;209.77;10.23;;;;;;;26.60;39.40;98585.75;7292120;19;131224;-39
2023/12/05 06:02:11;;;;;;;158.93;8.23;;;;;;;26.50;39.99;98590.56;7290690;19;130825;-40
2023/12/05 06:04:40;;;;;;;141.48;7.47;;;;;;;26.56;39.52;98579.22;7289933;19;130762;-39
2023/12/05 06:07:06;;;;;;;252.65;12.25;;;;;;;26.56;39.20;98594.25;7286454;19;131542;-40
2023/12/05 06:09:32;;;;;;;253.57;11.70;;;;;;;26.40;39.77;98576.09;7288232;19;129340;-39
2023/12/05 06:11:57;;;;;;;168.47;8.27;;;;;;;26.47;40.04;98585.69;7291233;19;133869;-40
2023/12/05 06:14:22;;;;;;;183.30;8.70;;;;;;;26.45;39.47;98582.44;7289098;19;130978;-40
2023/12/05 06:16:48;;;;;;;223.77;10.77;;;;;;;26.43;39.84;98592.34;7289240;19;132125;-38
2023/12/05 06:19:13;;;;;;;246.03;11.77;;;;;;;26.39;40.04;98587.66;7287790;19;129661;-40
2023/12/05 06:21:38;;;;;;;158.77;8.13;;;;;;;26.30;40.24;98589.66;7289133;19;130188;-37
2023/12/05 06:24:04;;;;;;;165.27;8.40;;;;;;;26.13;40.16;98598.84;7288742;19;130958;-38
2023/12/05 06:26:29;;;;;;;178.30;8.53;;;;;;;26.01;40.99;98599.56;7289843;19;132856;-38
2023/12/05 06:28:55;;;;;;;184.23;8.87;;;;;;;25.96;40.60;98597.50;7291645;19;132006;-39
2023/12/05 06:31:20;;;;;;;161.63;8.10;;;;;;;25.89;41.15;98609.81;7289167;19;130415;-40
2023/12/05 06:33:45;;;;;;;110.37;6.10;;;;;;;25.78;41.11;98593.72;7288703;19;130812;-39
2023/12/05 06:36:12;;;;;;;204.07;9.73;;;;;;;25.81;41.12;98602.03;7286917;19;130370;-38
2023/12/05 06:38:37;;;;;;;216.25;10.25;;;;;;;25.72;41.38;98610.28;7287929;19;129635;-40
2023/12/05 06:41:03;;;;;;;185.53;9.27;;;;;;;25.74;40.97;98601.16;7286679;19;130871;-38
2023/12/05 06:43:28;;;;;;;176.33;8.80;;;;;;;25.78;41.33;98605.06;7290629;19;130477;-37
2023/12/05 06:45:54;;;;;;;203.63;9.30;;;;;;;25.79;41.73;98606.69;7289073;19;130519;-38
2023/12/05 06:48:19;;;;;;;179.10;8.57;;;;;;;25.81;41.36;98604.69;7290933;19;129879;-39
2023/12/05 06:50:48;;;;;;;182.33;8.93;;;;;;;25.82;41.23;98601.03;7283090;19;131059;-40
2023/12/05 06:53:13;;;;;;;224.65;11.07;;;;;;;25.80;41.46;98605.66;7289329;19;130931;-37
2023/12/05 06:55:38;;;;;;;251.57;11.60;;;;;;;25.82;41.86;98594.97;7275377;19;130386;-40
2023/12/05 06:58:04;;;;;;;245.97;11.77;;;;;;;25.94;41.61;98599.50;7283114;19;130482;-40
2023/12/05 07:00:29;;;;;;;190.43;9.07;;;;;;;26.04;42.10;98605.28;7286449;19;131073;-38
2023/12/05 07:02:55;;;;;;;181.40;8.63;;;;;;;26.02;42.11;98611.75;7294131;19;130272;-38
2023/12/05 07:05:20;;;;;;;207.90;10.27;;;;;;;26.09;41.63;98612.59;7292101;19;130432;-38
2023/12/05 07:07:46;;;;;;;228.97;11.23;;;;;;;26.07;41.71;98619.88;7292471;19;129653;-40
2023/12/05 07:10:11;;;;;;;224.77;11.33;;;;;;;26.12;38.26;98626.22;7289505;19;130841;-39
2023/12/05 07:12:36;;;;;;;192.23;9.13;;;;;;;26.07;39.98;98611.97;7292761;19;132061;-41
2023/12/05 07:15:02;;;;;;;148.90;7.83;;;;;;;26.07;40.46;98614.63;7293584;19;129647;-38
2023/12/05 07:17:28;;;;;;;162.10;8.80;;;;;;;26.13;40.65;98619.94;7292757;19;129379;-40
2023/12/05 07:19:53;;;;;;;164.37;8.10;;;;;;;26.14;40.51;98616.31;7286227;19;131239;-41
2023/12/05 07:22:18;;;;;;;248.87;11.83;;;;;;;26.21;40.39;98617.16;7293839;19;130893;-39
2023/12/05 07:24:44;;;;;;;153.30;7.87;;;;;;;26.14;40.96;98608.41;7291268;19;130844;-38
2023/12/05 07:27:09;;;;;;;208.67;10.47;;;;;;;26.20;40.99;98604.97;7291320;19;130932;-39
2023/12/05 07:29:34;;;;;;;154.60;7.87;;;;;;;26.18;41.12;98611.47;7287753;19;130650;-36
2023/12/05 07:32:00;;;;;;;222.33;10.63;;;;;;;26.11;41.22;98590.34;7292850;19;131348;-40
2023/12/05 07:34:25;;;;;;;210.63;10.40;;;;;;;26.24;41.44;98616.78;7290647;19;129613;-41
2023/12/05 07:36:50;;;;;;;177.93;8.73;;;;;;;26.24;41.81;98615.97;7292230;19;129872;-39
2023/12/05 07:39:16;;;;;;;203.43;10.30;;;;;;;26.26;41.28;98630.56;7288257;19;130507;-39
2023/12/05 07:41:41;;;;;;;170.30;8.60;;;;;;;26.31;41.39;98622.88;7294147;19;129597;-38
2023/12/05 07:44:07;;;;;;;165.47;8.43;;;;;;;26.30;41.27;98623.91;7291723;19;129276;-36
2023/12/05 07:46:33;;;;;;;99.40;5.53;;;;;;;26.33;41.08;98631.41;7288744;19;129346;-38
2023/12/05 07:48:58;;;;;;;199.07;9.40;;;;;;;26.34;40.96;98632.25;7287059;19;130230;-39
2023/12/05 07:51:24;;;;;;;179.07;9.07;;;;;;;26.30;41.62;98631.81;7289909;19;129802;-39
2023/12/05 07:53:53;;;;;;;168.97;8.70;;;;;;;26.42;41.67;98635.53;7293245;19;130851;-42
2023/12/05 07:56:18;;;;;;;145.50;7.80;;;;;;;26.31;41.41;98638.69;7289717;19;131250;-37
2023/12/05 07:58:44;;;;;;;185.83;9.20;;;;;;;26.35;41.05;98639.94;7289291;19;130144;-41
2023/12/05 08:01:09;;;;;;;128.27;7.03;;;;;;;26.40;40.95;98642.81;7291400;19;131152;-37
2023/12/05 08:03:34;;;;;;;165.50;8.40;;;;;;;26.45;41.64;98648.31;7292081;19;129240;-39
2023/12/05 08:06:01;;;;;;;144.37;7.73;;;;;;;26.36;41.64;98643.41;7289905;19;130266;-40
2023/12/05 08:08:30;;;;;;;215.15;10.20;;;;;;;26.44;41.78;98648.53;7289909;19;130143;-40
2023/12/05 08:10:57;;;;;;;122.15;6.57;;;;;;;26.37;41.69;98643.22;7291106;19;131737;-39
2023/12/05 08:13:22;;;;;;;181.25;8.85;;;;;;;26.43;41.29;98647.69;7291571;19;130113;-39
2023/12/05 08:15:48;;;;;;;125.00;6.67;;;;;;;26.42;41.50;98640.81;7290361;19;130854;-41
2023/12/05 08:18:13;;;;;;;231.73;10.93;;;;;;;26.41;41.58;98647.06;7290760;19;130920;-38
2023/12/05 08:20:38;;;;;;;167.37;8.27;;;;;;;26.45;40.67;98637.78;7286383;19;129999;-39
2023/12/05 08:23:04;;;;;;;112.70;6.33;;;;;;;26.47;40.95;98651.59;7284964;19;130884;-41
2023/12/05 08:25:29;;;;;;;77.10;4.57;;;;;;;26.48;41.30;98647.13;7290319;19;129670;-38
2023/12/05 08:27:55;;;;;;;221.90;10.27;;;;;;;26.51;41.15;98644.91;7293125;19;131401;-39
2023/12/05 08:30:20;;;;;;;176.27;9.23;;;;;;;26.37;40.73;98630.03;7289482;19;130402;-37
2023/12/05 08:32:46;;;;;;;149.80;7.77;;;;;;;26.49;41.74;98651.41;7290124;19;129158;-39
2023/12/05 08:35:11;;;;;;;186.93;9.20;;;;;;;26.55;41.66;98656.72;7288261;19;129632;-41
2023/12/05 08:37:37;;;;;;;242.87;11.87;;;;;;;26.53;41.45;98648.16;7289920;19;133323;-40
2023/12/05 08:40:03;;;;;;;148.77;7.53;;;;;;;26.51;40.91;98652.81;7291060;19;130346;-38
2023/12/05 08:42:28;;;;;;;154.17;7.77;;;;;;;26.55;41.55;98646.16;7290266;19;131410;-39
2023/12/05 08:44:54;;;;;;;170.40;8.67;;;;;;;26.56;41.27;98647.78;7289035;19;129937;-38
2023/12/05 08:47:19;;;;;;;214.83;10.50;;;;;;;26.57;41.10;98649.41;7288567;19;130241;-40
2023/12/05 08:49:45;;;;;;;171.73;8.80;;;;;;;26.49;41.17;98646.94;7289204;19;131236;-39
2023/12/05 08:52:10;;;;;;;141.17;7.43;;;;;;;26.47;41.39;98627.88;7291672;19;129339;-38
2023/12/05 08:54:35;;;;;;;193.80;9.67;;;;;;;26.55;41.26;98651.44;7288546;19;129159;-38
2023/12/05 08:57:01;;;;;;;152.17;8.03;;;;;;;26.52;41.33;98638.66;7291726;19;129129;-40
2023/12/05 08:59:26;;;;;;;217.40;10.90;;;;;;;26.55;41.58;98635.63;7288784;19;129114;-40
2023/12/05 09:01:51;;;;;;;166.10;8.10;;;;;;;26.42;41.40;98625.00;7291355;19;129178;-39
2023/12/05 09:04:17;;;;;;;275.50;13.53;;;;;;;26.56;41.65;98645.13;7292670;19;131125;-40
2023/12/05 09:06:42;;;;;;;148.63;7.80;;;;;;;26.60;41.59;98649.03;7292816;19;129504;-39
2023/12/05 09:09:09;;;;;;;145.80;7.57;;;;;;;26.61;41.78;98648.00;7296130;19;129609;-41
2023/12/05 09:11:35;;;;;;;;;;;;;;;26.55;41.39;98640.88;7297168;19;131677;-38
2023/12/05 09:14:00;;;;;;;214.63;10.68;;;;;;;26.58;35.89;98645.75;7297124;19;129498;-35
2023/12/05 09:16:25;;;;;;;199.43;10.60;;;;;;;26.40;35.14;98648.09;7296515;19;130548;-39
2023/12/05 09:18:51;;;;;;;170.10;9.13;;;;;;;26.31;35.32;98653.72;7293979;19;130333;-40
2023/12/05 09:21:16;;;;;;;156.23;8.47;;;;;;;26.27;36.24;98648.00;7292372;19;129995;-39
2023/12/05 09:23:42;;;;;;;200.93;9.73;;;;;;;26.10;37.00;98625.59;7295762;19;131296;-37
2023/12/05 09:26:07;;;;;;;214.67;10.67;;;;;;;26.27;37.13;98642.75;7294607;19;129513;-38
2023/12/05 09:28:34;;;;;;;173.53;8.90;;;;;;;26.26;37.58;98641.09;7293154;19;129605;-40
2023/12/05 09:30:59;;;;;;;;;;;;;;;26.32;37.38;98647.44;7298059;19;130056;-38
2023/12/05 09:33:24;;;;;;;242.95;12.10;;;;;;;26.37;37.12;98642.38;7297234;19;131669;-39
2023/12/05 09:35:50;;;;;;;124.40;7.10;;;;;;;26.36;37.25;98636.28;7294594;19;131474;-38
2023/12/05 09:38:16;;;;;;;156.23;8.90;;;;;;;26.39;37.21;98641.22;7294398;19;131476;-39
2023/12/05 09:40:41;;;;;;;185.27;9.80;;;;;;;26.40;36.78;98642.81;7293426;19;130917;-41
2023/12/05 09:43:08;;;;;;;185.50;9.73;;;;;;;26.36;37.14;98643.41;7296192;19;130974;-41
2023/12/05 09:45:39;;;;;;;152.93;8.23;;;;;;;26.39;36.60;98635.94;7294505;19;130384;-39
2023/12/05 09:48:08;;;;;;;90.40;5.80;;;;;;;26.37;36.75;98632.66;7293720;19;131165;-41
2023/12/05 09:50:35;;;;;;;190.63;9.98;;;;;;;26.39;36.83;98627.19;7290395;19;129443;-39
2023/12/05 09:53:02;;;;;;;185.75;9.80;;;;;;;26.22;36.52;98608.25;7292697;19;129503;-40
2023/12/05 09:55:27;;;;;;;;;;;;;;;26.41;36.82;98626.00;7296499;19;132483;-38
2023/12/05 09:57:55;;;;;;;212.60;11.65;;;;;;;26.45;36.45;98618.50;7292316;19;130874;-39
2023/12/05 10:00:21;;;;;;;209.75;10.68;;;;;;;26.45;36.71;98619.34;7292884;19;129884;-39
2023/12/05 10:02:48;;;;;;;217.37;10.80;;;;;;;26.36;36.24;98625.75;7292105;19;130176;-40
2023/12/05 10:05:14;;;;;;;231.93;12.18;;;;;;;26.38;37.05;98623.75;7290752;19;129876;-42
2023/12/05 10:07:41;;;;;;;221.77;11.02;;;;;;;26.42;36.11;98618.91;7291902;19;132906;-41
2023/12/05 10:10:08;;;;;;;148.98;8.05;;;;;;;26.44;36.58;98616.91;7293147;19;129944;-39
2023/12/05 10:12:33;;;;;;;244.93;12.13;;;;;;;26.41;36.47;98614.66;7285854;19;130695;-41
2023/12/05 10:15:00;;;;;;;157.47;8.50;;;;;;;26.41;36.62;98614.66;7282520;19;132789;-38
2023/12/05 10:17:26;;;;;;;208.70;11.13;;;;;;;26.45;35.99;98606.16;7295438;19;130746;-42
2023/12/05 10:19:51;;;;;;;249.33;13.20;;;;;;;26.43;36.59;98612.63;7287363;19;131018;-40
2023/12/05 10:22:17;;;;;;;178.37;9.07;;;;;;;26.39;36.53;98614.03;7290230;19;129237;-35
2023/12/05 10:24:44;;;;;;;255.20;13.20;;;;;;;26.31;36.01;98607.06;7288034;19;130158;-39
2023/12/05 10:27:09;;;;;;;158.60;8.90;;;;;;;26.23;34.42;98617.78;7285274;19;130964;-40
2023/12/05 10:29:40;;;;;;;224.87;11.13;;;;;;;26.13;34.06;98598.84;7289130;19;130341;-40
2023/12/05 10:32:06;;;;;;;190.23;10.00;;;;;;;26.13;34.57;98606.75;7291410;19;129829;-39
2023/12/05 10:34:46;;;;;;;200.38;10.50;;;;;;;26.05;34.54;98601.63;7292792;19;129437;-39
2023/12/05 10:37:11;;;;;;;164.85;8.85;;;;;;;26.02;35.32;98591.50;7292759;19;129875;-41
2023/12/05 10:39:37;;;;;;;195.87;10.30;;;;;;;26.01;35.65;98595.16;7288290;19;129128;-38
2023/12/05 10:42:09;;;;;;;203.80;10.40;;;;;;;25.84;35.26;98571.88;7287607;19;130053;-41
2023/12/05 10:44:38;;;;;;;172.93;9.30;;;;;;;25.80;35.43;98570.63;7293510;19;129552;-39
2023/12/05 10:47:08;;;;;;;153.90;8.45;;;;;;;25.89;35.55;98591.38;7290198;19;129258;-38
2023/12/05 10:49:34;;;;;;;174.90;9.10;;;;;;;25.88;35.76;98589.75;7291405;19;129154;-40
2023/12/05 10:52:04;;;;;;;210.00;10.13;;;;;;;25.92;35.93;98595.41;7292822;19;129521;-41
2023/12/05 10:54:30;;;;;;;194.05;10.27;;;;;;;25.89;34.46;98596.63;7293420;19;129222;-40
2023/12/05 10:56:59;;;;;;;182.07;10.80;;;;;;;25.84;32.45;98592.94;7292931;19;130505;-40
2023/12/05 10:59:28;;;;;;;183.38;11.80;;;;;;;25.75;31.93;98592.25;7290466;19;129220;-39
2023/12/05 11:01:58;;;;;;;185.30;10.05;;;;;;;25.79;32.29;98580.34;7292236;19;131772;-41